Time;durP1;ratioP1;P1;durP2;ratioP2;P2;SDS_P1;SDS_P2;PMS_P1;PMS_P2;Temp;Humidity;BMP_temperature;BMP_pressure;BME280_temperature;BME280_humidity;BME280_pressure;Samples;Min_cycle;Max_cycle;Signal;HPM_P1;HPM_P2
2022/10/21 00:00:51;;;;;;;29.45;15.23;;;15.00;99.90;;;;;;5093813;28;20050;-74
2022/10/21 00:03:17;;;;;;;28.15;14.40;;;15.00;99.90;;;;;;5096467;28;20016;-74
2022/10/21 00:05:43;;;;;;;25.85;14.15;;;15.00;99.90;;;;;;5114390;28;20032;-74
2022/10/21 00:08:09;;;;;;;30.58;14.43;;;15.00;99.90;;;;;;5099260;28;20040;-74
2022/10/21 00:10:34;;;;;;;24.23;14.30;;;15.00;99.90;;;;;;5109206;28;20475;-73
2022/10/21 00:13:00;;;;;;;27.60;14.52;;;15.00;99.90;;;;;;5104748;28;20076;-74
2022/10/21 00:15:25;;;;;;;24.40;13.02;;;15.00;99.90;;;;;;5112746;28;20542;-74
2022/10/21 00:17:51;;;;;;;23.67;13.52;;;14.90;99.90;;;;;;5113838;28;20042;-74
2022/10/21 00:20:17;;;;;;;24.30;13.13;;;14.90;99.90;;;;;;5099241;28;20020;-74
2022/10/21 00:22:42;;;;;;;21.20;12.90;;;14.90;99.90;;;;;;5112722;28;20032;-74
2022/10/21 00:25:09;;;;;;;24.50;13.27;;;14.80;99.90;;;;;;5105707;28;20023;-74
2022/10/21 00:27:35;;;;;;;24.27;12.88;;;14.70;99.90;;;;;;5111827;28;20379;-73
2022/10/21 00:30:02;;;;;;;23.02;12.07;;;14.70;99.90;;;;;;5113413;28;20102;-74
2022/10/21 00:32:27;;;;;;;23.35;12.30;;;14.60;99.90;;;;;;5110058;28;20024;-74
2022/10/21 00:34:53;;;;;;;24.55;12.57;;;14.50;99.90;;;;;;5098352;28;20022;-74
2022/10/21 00:37:19;;;;;;;20.63;12.13;;;14.50;99.90;;;;;;5112853;28;20059;-74
2022/10/21 00:39:44;;;;;;;19.25;11.85;;;14.40;99.90;;;;;;5107800;28;20133;-74
2022/10/21 00:42:15;;;;;;;16.90;11.60;;;14.40;99.90;;;;;;5077194;28;20040;-73
2022/10/21 00:44:41;;;;;;;19.98;11.30;;;14.40;99.90;;;;;;5110256;28;20038;-74
2022/10/21 00:47:15;;;;;;;23.08;12.68;;;14.30;99.90;;;;;;5112458;28;20019;-74
2022/10/21 00:49:56;;;;;;;20.00;12.43;;;14.30;99.90;;;;;;5111478;28;20471;-74
2022/10/21 00:52:22;;;;;;;21.88;12.02;;;14.30;99.90;;;;;;5104502;28;20114;-74
2022/10/21 00:54:51;;;;;;;23.27;12.60;;;14.20;99.90;;;;;;5108950;28;20562;-74
2022/10/21 00:57:19;;;;;;;27.02;13.50;;;14.20;99.90;;;;;;5098361;28;20422;-74
2022/10/21 00:59:49;;;;;;;21.48;12.93;;;14.20;99.90;;;;;;5097981;28;20036;-74
2022/10/21 01:02:15;;;;;;;20.92;12.73;;;14.20;99.90;;;;;;5111034;28;20399;-74
2022/10/21 01:04:41;;;;;;;22.48;11.95;;;14.10;99.90;;;;;;5110292;28;20035;-74
2022/10/21 01:07:07;;;;;;;24.05;11.93;;;14.10;99.90;;;;;;5093241;28;20036;-73
2022/10/21 01:09:32;;;;;;;22.60;12.68;;;14.00;99.90;;;;;;5112486;28;20078;-74
2022/10/21 01:12:01;;;;;;;25.00;12.45;;;14.00;99.90;;;;;;5111908;28;20468;-74
2022/10/21 01:14:47;;;;;;;21.60;12.35;;;13.90;99.90;;;;;;5112469;28;20102;-74
2022/10/21 01:17:31;;;;;;;20.63;12.23;;;13.90;99.90;;;;;;5098082;28;20012;-74
2022/10/21 01:19:59;;;;;;;21.15;11.73;;;13.80;99.90;;;;;;5091407;28;20120;-75
2022/10/21 01:22:54;;;;;;;25.73;12.32;;;13.70;99.90;;;;;;5109951;28;20026;-74
2022/10/21 01:25:40;;;;;;;25.73;11.75;;;13.70;99.90;;;;;;5052649;28;20537;-74
2022/10/21 01:28:24;;;;;;;23.65;11.82;;;13.60;99.90;;;;;;5107905;28;20118;-74
2022/10/21 01:30:56;;;;;;;20.88;11.52;;;13.60;99.90;;;;;;5099987;28;20032;-74
2022/10/21 01:33:51;;;;;;;19.92;10.75;;;13.50;99.90;;;;;;5112417;28;20020;-74
2022/10/21 01:37:04;;;;;;;20.42;11.65;;;13.50;99.90;;;;;;5076572;28;21263;-74
2022/10/21 01:39:45;;;;;;;22.45;11.57;;;13.40;99.90;;;;;;5079424;28;20079;-74
2022/10/21 01:42:39;;;;;;;20.50;12.68;;;13.30;99.90;;;;;;5111837;28;20069;-74
2022/10/21 01:45:26;;;;;;;19.08;12.13;;;13.30;99.90;;;;;;5100777;28;20024;-74
2022/10/21 01:48:08;;;;;;;19.70;11.68;;;13.30;99.90;;;;;;5107207;28;20030;-74
2022/10/21 01:50:38;;;;;;;20.23;11.95;;;13.30;99.90;;;;;;5102080;28;20101;-73
2022/10/21 01:53:11;;;;;;;32.53;14.90;;;13.30;99.90;;;;;;5110907;28;20038;-73
2022/10/21 01:55:38;;;;;;;27.98;14.15;;;13.30;99.90;;;;;;5093384;28;20028;-74
2022/10/21 01:58:09;;;;;;;28.63;15.10;;;13.30;99.90;;;;;;5111792;28;20027;-74
2022/10/21 02:00:36;;;;;;;24.33;13.98;;;13.30;99.90;;;;;;5111857;28;20039;-74
2022/10/21 02:03:05;;;;;;;28.17;14.20;;;13.40;99.90;;;;;;5111127;28;20026;-74
2022/10/21 02:05:31;;;;;;;25.48;14.25;;;13.40;99.90;;;;;;5112070;28;20031;-74
2022/10/21 02:07:57;;;;;;;22.77;13.15;;;13.40;99.90;;;;;;5110722;28;20543;-74
2022/10/21 02:10:26;;;;;;;21.48;13.07;;;13.40;99.90;;;;;;5095000;28;20022;-74
2022/10/21 02:12:55;;;;;;;20.75;13.02;;;13.40;99.90;;;;;;5110874;28;20038;-74
2022/10/21 02:15:22;;;;;;;20.33;13.18;;;13.40;99.90;;;;;;5091781;28;20073;-74
2022/10/21 02:17:53;;;;;;;26.38;14.20;;;13.40;99.90;;;;;;5109936;28;20028;-74
2022/10/21 02:20:23;;;;;;;19.20;13.18;;;13.30;99.90;;;;;;5097126;28;20107;-74
2022/10/21 02:22:49;;;;;;;23.98;13.25;;;13.30;99.90;;;;;;5106224;28;20058;-74
2022/10/21 02:25:22;;;;;;;23.73;12.75;;;13.30;99.90;;;;;;5101985;28;20109;-74
2022/10/21 02:27:48;;;;;;;22.08;12.15;;;13.20;99.90;;;;;;5105934;28;20023;-74
2022/10/21 02:30:14;;;;;;;20.15;12.10;;;13.20;99.90;;;;;;5109032;28;20024;-75
2022/10/21 02:32:52;;;;;;;20.42;12.75;;;13.20;99.90;;;;;;5103990;28;20028;-73
2022/10/21 02:35:42;;;;;;;28.38;14.98;;;13.10;99.90;;;;;;5109555;28;20437;-74
2022/10/21 02:38:23;;;;;;;27.23;13.63;;;13.10;99.90;;;;;;5097686;28;20474;-74
2022/10/21 02:40:58;;;;;;;22.83;12.45;;;13.10;99.90;;;;;;5110673;28;20027;-73
2022/10/21 02:44:01;;;;;;;23.88;13.23;;;13.10;99.90;;;;;;5106280;28;20353;-74
2022/10/21 02:46:36;;;;;;;20.30;12.77;;;13.00;99.90;;;;;;5096832;28;20466;-74
2022/10/21 02:49:01;;;;;;;21.70;12.48;;;13.00;99.90;;;;;;5095167;28;20048;-74
2022/10/21 02:51:27;;;;;;;25.90;13.55;;;13.00;99.90;;;;;;5110325;28;20379;-74
2022/10/21 02:53:53;;;;;;;21.23;13.43;;;13.00;99.90;;;;;;5097014;28;20092;-74
2022/10/21 02:56:19;;;;;;;22.80;13.50;;;12.90;99.90;;;;;;5110456;28;20031;-74
2022/10/21 02:58:44;;;;;;;27.02;13.25;;;13.00;99.90;;;;;;5101683;28;20036;-74
2022/10/21 03:01:10;;;;;;;24.00;12.45;;;12.90;99.90;;;;;;5105699;28;20042;-74
2022/10/21 03:03:36;;;;;;;22.63;12.50;;;12.90;99.90;;;;;;5106658;28;20024;-73
2022/10/21 03:06:02;;;;;;;22.95;12.75;;;13.00;99.90;;;;;;5109868;28;20430;-74
2022/10/21 03:08:27;;;;;;;20.88;13.40;;;12.90;99.90;;;;;;5094749;28;20020;-73
2022/10/21 03:10:54;;;;;;;21.85;12.15;;;12.90;99.90;;;;;;5108589;28;20026;-76
2022/10/21 03:13:20;;;;;;;21.08;12.45;;;12.90;99.90;;;;;;5107287;28;20458;-74
2022/10/21 03:15:47;;;;;;;20.55;12.38;;;12.80;99.90;;;;;;5091579;28;20046;-74
2022/10/21 03:18:13;;;;;;;20.30;11.48;;;12.80;99.90;;;;;;5109443;28;20028;-74
2022/10/21 03:20:39;;;;;;;24.35;12.88;;;12.80;99.90;;;;;;5102670;28;20643;-74
2022/10/21 03:23:04;;;;;;;21.80;13.65;;;12.80;99.90;;;;;;5089345;28;20051;-75
2022/10/21 03:25:30;;;;;;;23.63;14.20;;;12.80;99.90;;;;;;5093726;28;20113;-74
2022/10/21 03:27:55;;;;;;;23.48;13.95;;;12.70;99.90;;;;;;5109671;28;20030;-74
2022/10/21 03:30:21;;;;;;;23.70;13.10;;;12.70;99.90;;;;;;5106539;28;20024;-74
2022/10/21 03:32:46;;;;;;;23.73;12.77;;;12.70;99.90;;;;;;5089748;28;20048;-74
2022/10/21 03:35:12;;;;;;;26.20;12.07;;;12.70;99.90;;;;;;5104288;28;20032;-74
2022/10/21 03:37:38;;;;;;;27.33;13.40;;;12.60;99.90;;;;;;5110176;28;20532;-74
2022/10/21 03:40:04;;;;;;;20.42;12.20;;;12.60;99.90;;;;;;5109817;28;20072;-74
2022/10/21 03:42:30;;;;;;;25.55;12.65;;;12.60;99.90;;;;;;5094700;28;20031;-74
2022/10/21 03:44:55;;;;;;;20.42;11.02;;;12.60;99.90;;;;;;5091590;28;20031;-74
2022/10/21 03:47:21;;;;;;;24.63;13.07;;;12.60;99.90;;;;;;5090866;28;20120;-75
2022/10/21 03:49:47;;;;;;;20.10;12.15;;;12.50;99.90;;;;;;5097790;28;20051;-74
2022/10/21 03:52:12;;;;;;;18.45;11.18;;;12.50;99.90;;;;;;5108587;28;20091;-74
2022/10/21 03:54:38;;;;;;;20.23;12.13;;;12.50;99.90;;;;;;5109759;28;20048;-74
2022/10/21 03:57:03;;;;;;;17.85;11.63;;;12.50;99.90;;;;;;5109004;28;20028;-74
2022/10/21 03:59:29;;;;;;;21.70;12.70;;;12.40;99.90;;;;;;5095892;28;20146;-74
2022/10/21 04:01:54;;;;;;;26.20;12.50;;;12.40;99.90;;;;;;5109119;28;20028;-74
2022/10/21 04:04:20;;;;;;;22.17;12.07;;;12.40;99.90;;;;;;5107053;28;20040;-74
2022/10/21 04:06:46;;;;;;;19.08;12.57;;;12.40;99.90;;;;;;5109128;28;20022;-74
2022/10/21 04:09:11;;;;;;;20.45;11.93;;;12.40;99.90;;;;;;5106829;28;20535;-74
2022/10/21 04:11:37;;;;;;;25.13;12.85;;;12.40;99.90;;;;;;5108028;28;20022;-75
2022/10/21 04:14:02;;;;;;;18.85;12.05;;;12.40;99.90;;;;;;5098290;28;20138;-74
2022/10/21 04:16:28;;;;;;;20.65;12.00;;;12.40;99.90;;;;;;5107443;28;20050;-74
2022/10/21 04:18:54;;;;;;;23.45;13.65;;;12.40;99.90;;;;;;5099340;28;20476;-74
2022/10/21 04:21:19;;;;;;;29.13;13.98;;;12.40;99.90;;;;;;5090739;28;20021;-74
2022/10/21 04:23:45;;;;;;;31.70;14.65;;;12.40;99.90;;;;;;5108251;28;20119;-74
2022/10/21 04:26:11;;;;;;;26.55;14.48;;;12.50;99.90;;;;;;5109006;28;20371;-75
2022/10/21 04:28:37;;;;;;;28.88;13.88;;;12.60;99.90;;;;;;5108507;28;20019;-74
2022/10/21 04:31:03;;;;;;;26.02;13.65;;;12.70;99.90;;;;;;5098064;28;20020;-74
2022/10/21 04:33:28;;;;;;;28.48;13.80;;;12.70;99.90;;;;;;5087691;28;20028;-74
2022/10/21 04:35:55;;;;;;;26.10;13.30;;;12.70;99.90;;;;;;5089426;28;20031;-74
2022/10/21 04:38:22;;;;;;;28.63;13.65;;;12.70;99.90;;;;;;5105944;28;20028;-74
2022/10/21 04:41:00;;;;;;;24.15;12.90;;;12.70;99.90;;;;;;5099347;28;20043;-74
2022/10/21 04:43:26;;;;;;;29.58;13.93;;;12.70;99.90;;;;;;5104250;28;20028;-74
2022/10/21 04:45:52;;;;;;;27.67;13.85;;;12.70;99.90;;;;;;5091995;28;20031;-74
2022/10/21 04:48:19;;;;;;;32.45;14.23;;;12.70;99.90;;;;;;5112477;28;20015;-75
2022/10/21 04:50:47;;;;;;;28.00;13.02;;;12.70;99.90;;;;;;5113810;28;20158;-75
2022/10/21 04:53:13;;;;;;;22.55;13.00;;;12.80;99.90;;;;;;5108982;28;20028;-74
2022/10/21 04:55:39;;;;;;;23.13;12.13;;;12.80;99.90;;;;;;5107600;28;20038;-74
2022/10/21 04:58:05;;;;;;;24.00;13.07;;;12.80;99.90;;;;;;5098968;28;20350;-74
2022/10/21 05:00:30;;;;;;;26.90;12.75;;;12.80;99.90;;;;;;5109508;28;20483;-74
2022/10/21 05:02:57;;;;;;;26.00;12.32;;;12.80;99.90;;;;;;5109182;28;20080;-74
2022/10/21 05:05:22;;;;;;;20.25;11.45;;;12.80;99.90;;;;;;5107770;28;20028;-74
2022/10/21 05:07:48;;;;;;;21.88;11.93;;;12.80;99.90;;;;;;5109881;28;20022;-74
2022/10/21 05:10:14;;;;;;;26.92;12.32;;;12.70;99.90;;;;;;5110911;28;20039;-75
2022/10/21 05:12:39;;;;;;;21.70;11.63;;;12.70;99.90;;;;;;5108610;28;20012;-74
2022/10/21 05:15:05;;;;;;;23.70;11.88;;;12.80;99.90;;;;;;5106031;28;20023;-74
2022/10/21 05:17:31;;;;;;;26.92;12.13;;;12.70;99.90;;;;;;5088297;28;20043;-75
2022/10/21 05:19:56;;;;;;;21.63;11.38;;;12.70;99.90;;;;;;5109490;28;20095;-75
2022/10/21 05:22:22;;;;;;;23.88;11.50;;;12.80;99.90;;;;;;5109775;28;20623;-75
2022/10/21 05:24:48;;;;;;;22.98;11.73;;;12.70;99.90;;;;;;5086175;28;20039;-75
2022/10/21 05:27:13;;;;;;;20.55;11.02;;;12.70;99.90;;;;;;5109800;28;20040;-74
2022/10/21 05:29:39;;;;;;;20.73;10.90;;;12.70;99.90;;;;;;5101034;28;20507;-75
2022/10/21 05:32:05;;;;;;;18.25;10.65;;;12.70;99.90;;;;;;5107093;28;20495;-74
2022/10/21 05:34:30;;;;;;;23.00;10.95;;;12.70;99.90;;;;;;5106761;28;20032;-73
2022/10/21 05:36:57;;;;;;;22.83;11.65;;;12.70;99.90;;;;;;5109172;28;20518;-74
2022/10/21 05:39:23;;;;;;;26.77;11.13;;;12.70;99.90;;;;;;5109762;28;20106;-75
2022/10/21 05:41:48;;;;;;;21.63;10.35;;;12.80;99.90;;;;;;5107389;28;20150;-76
2022/10/21 05:44:14;;;;;;;17.38;9.68;;;12.70;99.90;;;;;;5107971;28;20027;-74
2022/10/21 05:46:40;;;;;;;18.48;10.75;;;12.70;99.90;;;;;;5106699;28;20041;-76
2022/10/21 05:49:06;;;;;;;18.60;9.32;;;12.70;99.90;;;;;;5107173;28;20506;-73
2022/10/21 05:51:32;;;;;;;14.85;9.70;;;12.70;99.90;;;;;;5105560;28;20123;-74
2022/10/21 05:53:58;;;;;;;21.63;10.30;;;12.70;99.90;;;;;;5109550;28;20100;-75
2022/10/21 05:56:23;;;;;;;18.10;9.43;;;12.70;99.90;;;;;;5106805;28;20035;-75
2022/10/21 05:58:50;;;;;;;19.38;9.40;;;12.70;99.90;;;;;;5104770;28;20572;-75
2022/10/21 06:01:16;;;;;;;17.15;9.18;;;12.70;99.90;;;;;;5105871;28;20028;-75
2022/10/21 06:03:41;;;;;;;14.20;9.07;;;12.70;99.90;;;;;;5109572;28;20058;-75
2022/10/21 06:06:08;;;;;;;17.65;8.45;;;12.60;99.90;;;;;;5108465;28;20498;-75
2022/10/21 06:08:37;;;;;;;19.65;9.57;;;12.60;99.90;;;;;;5102433;28;20031;-75
2022/10/21 06:11:09;;;;;;;15.93;9.00;;;12.50;99.90;;;;;;5103382;28;20024;-75
2022/10/21 06:13:35;;;;;;;21.02;8.57;;;12.50;99.90;;;;;;5095774;28;20506;-75
2022/10/21 06:16:01;;;;;;;17.05;8.90;;;12.50;99.90;;;;;;5097432;28;20032;-75
2022/10/21 06:18:27;;;;;;;18.92;9.18;;;12.50;99.90;;;;;;5095247;28;20020;-76
2022/10/21 06:20:53;;;;;;;23.65;9.05;;;12.50;99.90;;;;;;5100658;28;20024;-75
2022/10/21 06:23:18;;;;;;;19.33;8.93;;;12.50;99.90;;;;;;5096868;28;20103;-75
2022/10/21 06:25:56;;;;;;;19.58;9.32;;;12.60;99.90;;;;;;5101287;28;20028;-75
2022/10/21 06:28:21;;;;;;;18.58;9.30;;;12.60;99.90;;;;;;5090897;28;20178;-75
2022/10/21 06:30:47;;;;;;;18.92;9.75;;;12.60;99.90;;;;;;5105599;28;20507;-75
2022/10/21 06:33:13;;;;;;;20.55;9.38;;;12.70;99.90;;;;;;5104697;28;20026;-76
2022/10/21 06:35:38;;;;;;;16.80;9.13;;;12.70;99.90;;;;;;5103529;28;20047;-75
2022/10/21 06:38:04;;;;;;;21.45;9.40;;;12.70;99.90;;;;;;5109577;28;20119;-75
2022/10/21 06:40:29;;;;;;;13.90;7.78;;;12.70;99.90;;;;;;5106695;28;20035;-75
2022/10/21 06:42:55;;;;;;;17.40;8.85;;;12.70;99.90;;;;;;5099118;28;20471;-75
2022/10/21 06:45:21;;;;;;;14.43;8.05;;;12.70;99.90;;;;;;5109567;28;20481;-75
2022/10/21 06:47:46;;;;;;;13.35;7.63;;;12.60;99.90;;;;;;5110505;28;20020;-76
2022/10/21 06:50:12;;;;;;;19.92;8.63;;;12.60;99.90;;;;;;5110787;28;20048;-75
2022/10/21 06:52:38;;;;;;;13.98;8.43;;;12.60;99.90;;;;;;5092477;28;20020;-75
2022/10/21 06:55:05;;;;;;;16.95;8.77;;;12.60;99.90;;;;;;5111098;28;20062;-75
2022/10/21 06:57:30;;;;;;;18.33;7.80;;;12.50;99.90;;;;;;5108754;28;20024;-75
2022/10/21 06:59:56;;;;;;;18.20;8.43;;;12.50;99.90;;;;;;5110705;28;20023;-75
2022/10/21 07:02:23;;;;;;;22.20;8.30;;;12.50;99.90;;;;;;5110823;28;20429;-75
2022/10/21 07:04:51;;;;;;;23.67;8.15;;;12.50;99.90;;;;;;5110226;28;20028;-75
2022/10/21 07:07:17;;;;;;;19.15;7.75;;;12.50;99.90;;;;;;5099569;28;20024;-75
2022/10/21 07:09:42;;;;;;;23.70;8.30;;;12.50;99.90;;;;;;5107810;28;20674;-75
2022/10/21 07:12:08;;;;;;;26.52;8.75;;;12.50;99.90;;;;;;5110432;28;20081;-75
2022/10/21 07:14:33;;;;;;;27.77;11.90;;;12.50;99.90;;;;;;5110159;28;20027;-75
2022/10/21 07:16:59;;;;;;;48.83;22.95;;;12.50;99.90;;;;;;5110487;28;20158;-75
2022/10/21 07:19:25;;;;;;;47.33;22.95;;;12.50;99.90;;;;;;5110453;28;20027;-75
2022/10/21 07:21:50;;;;;;;33.15;17.33;;;12.50;99.90;;;;;;5095843;28;20023;-75
2022/10/21 07:24:16;;;;;;;70.35;38.30;;;12.50;99.90;;;;;;5109966;28;20032;-75
2022/10/21 07:26:42;;;;;;;25.15;13.57;;;12.50;99.90;;;;;;5095712;28;20007;-75
2022/10/21 07:29:07;;;;;;;22.33;13.45;;;12.50;99.90;;;;;;5110212;28;20091;-75
2022/10/21 07:31:36;;;;;;;26.40;12.55;;;12.60;99.90;;;;;;5096013;28;20106;-75
2022/10/21 07:34:04;;;;;;;21.70;11.95;;;12.60;99.90;;;;;;5110819;28;20098;-76
2022/10/21 07:36:32;;;;;;;22.70;11.25;;;12.70;99.90;;;;;;5110505;28;20099;-75
2022/10/21 07:39:02;;;;;;;20.15;10.75;;;12.70;99.90;;;;;;5105405;28;20024;-75
2022/10/21 07:41:35;;;;;;;18.00;9.85;;;12.80;99.90;;;;;;5090267;28;20036;-76
2022/10/21 07:44:01;;;;;;;21.17;10.65;;;12.80;99.90;;;;;;5092131;28;20387;-74
2022/10/21 07:46:27;;;;;;;20.65;9.73;;;12.90;99.90;;;;;;5100115;28;20422;-76
2022/10/21 07:48:53;;;;;;;21.80;9.63;;;12.90;99.90;;;;;;5091809;28;20021;-75
2022/10/21 07:51:22;;;;;;;21.98;10.23;;;13.00;99.90;;;;;;5110052;28;20146;-75
2022/10/21 07:53:49;;;;;;;19.13;9.40;;;13.00;99.90;;;;;;5095164;28;20020;-76
2022/10/21 07:56:17;;;;;;;16.48;9.52;;;13.10;99.90;;;;;;5099418;28;20421;-75
2022/10/21 07:58:45;;;;;;;22.02;9.30;;;13.10;99.90;;;;;;5110144;28;20175;-75
2022/10/21 08:01:12;;;;;;;21.45;9.20;;;13.20;99.90;;;;;;5106478;28;20024;-75
2022/10/21 08:03:37;;;;;;;20.10;9.40;;;13.20;99.90;;;;;;5089910;28;20032;-75
2022/10/21 08:06:04;;;;;;;19.80;9.43;;;13.30;99.90;;;;;;5105011;28;20069;-75
2022/10/21 08:08:31;;;;;;;23.73;9.73;;;13.30;99.90;;;;;;5110041;28;20069;-75
2022/10/21 08:10:57;;;;;;;17.23;8.82;;;13.40;99.90;;;;;;5109514;28;20463;-75
2022/10/21 08:13:22;;;;;;;16.90;8.15;;;13.40;99.90;;;;;;5099313;28;20074;-75
2022/10/21 08:15:51;;;;;;;18.45;8.30;;;13.40;99.90;;;;;;5101350;28;20085;-75
2022/10/21 08:18:18;;;;;;;18.75;8.43;;;13.50;99.90;;;;;;5099889;28;20026;-75
2022/10/21 08:20:45;;;;;;;13.52;7.10;;;13.60;99.90;;;;;;5109920;28;20453;-75
2022/10/21 08:23:12;;;;;;;18.25;7.38;;;13.60;99.90;;;;;;5110843;28;20486;-74
2022/10/21 08:25:39;;;;;;;20.33;7.70;;;13.70;99.90;;;;;;5111840;28;20032;-74
2022/10/21 08:28:05;;;;;;;16.30;7.88;;;13.70;99.90;;;;;;5109509;28;20064;-75
2022/10/21 08:30:31;;;;;;;18.05;7.68;;;13.80;99.90;;;;;;5110587;28;20034;-73
2022/10/21 08:32:58;;;;;;;14.18;7.85;;;13.80;99.90;;;;;;5108208;28;20024;-75
2022/10/21 08:35:24;;;;;;;21.90;7.90;;;13.90;99.90;;;;;;5113068;28;20114;-75
2022/10/21 08:37:50;;;;;;;19.65;8.95;;;13.90;99.90;;;;;;5114112;28;20028;-75
2022/10/21 08:40:17;;;;;;;20.58;8.20;;;14.00;99.90;;;;;;5113566;28;20046;-74
2022/10/21 08:42:44;;;;;;;18.48;7.93;;;14.00;99.90;;;;;;5109134;28;20028;-74
2022/10/21 08:45:21;;;;;;;16.83;7.82;;;14.10;99.90;;;;;;5108794;28;20409;-75
2022/10/21 08:47:53;;;;;;;17.67;8.40;;;14.10;99.90;;;;;;5096646;28;20140;-74
2022/10/21 08:50:26;;;;;;;14.25;8.05;;;14.20;99.90;;;;;;5092942;28;20436;-74
2022/10/21 08:53:04;;;;;;;16.90;8.23;;;14.30;99.90;;;;;;5109499;28;20031;-74
2022/10/21 08:55:39;;;;;;;15.57;7.95;;;14.30;99.90;;;;;;5103005;28;20399;-75
2022/10/21 08:58:05;;;;;;;16.02;7.53;;;14.40;99.90;;;;;;5114069;28;20019;-74
2022/10/21 09:00:36;;;;;;;18.48;8.30;;;14.50;99.90;;;;;;5113446;28;20348;-73
2022/10/21 09:03:07;;;;;;;19.63;7.30;;;14.50;99.90;;;;;;5112939;28;20023;-74
2022/10/21 09:05:55;;;;;;;23.08;7.80;;;14.60;99.90;;;;;;5113111;28;20032;-73
2022/10/21 09:09:02;;;;;;;17.98;7.18;;;14.70;99.90;;;;;;5098967;28;20049;-72
2022/10/21 09:11:41;;;;;;;18.08;6.55;;;14.70;99.90;;;;;;5112863;28;20077;-73
2022/10/21 09:14:20;;;;;;;13.27;7.20;;;14.80;99.90;;;;;;5112513;28;20030;-74
2022/10/21 09:17:06;;;;;;;15.35;7.50;;;14.90;99.90;;;;;;5079948;28;20020;-73
2022/10/21 09:19:54;;;;;;;16.20;7.50;;;14.90;99.90;;;;;;5111282;28;20284;-73
2022/10/21 09:22:51;;;;;;;13.63;6.80;;;15.00;99.90;;;;;;5112872;28;20481;-73
2022/10/21 09:25:37;;;;;;;12.15;6.80;;;15.00;99.90;;;;;;5093288;28;20491;-73
2022/10/21 09:28:13;;;;;;;20.83;7.28;;;15.10;99.90;;;;;;5111442;28;20031;-73
2022/10/21 09:30:40;;;;;;;16.58;6.93;;;15.10;99.90;;;;;;5100642;28;20368;-73
2022/10/21 09:33:30;;;;;;;12.77;6.68;;;15.20;99.90;;;;;;5112713;28;20019;-73
2022/10/21 09:36:17;;;;;;;15.23;6.80;;;15.30;99.90;;;;;;5101019;28;20081;-74
2022/10/21 09:38:57;;;;;;;15.68;6.65;;;15.30;99.90;;;;;;5106794;28;20379;-72
2022/10/21 09:41:29;;;;;;;13.95;6.45;;;15.40;99.90;;;;;;5103432;28;20118;-73
2022/10/21 09:43:55;;;;;;;11.65;6.47;;;15.40;99.90;;;;;;5101822;28;20039;-73
2022/10/21 09:46:21;;;;;;;13.75;7.07;;;15.40;99.90;;;;;;5085965;28;20039;-73
2022/10/21 09:48:50;;;;;;;12.63;6.93;;;15.50;99.90;;;;;;5096259;28;20089;-73
2022/10/21 09:51:23;;;;;;;16.33;7.32;;;15.50;99.90;;;;;;5106383;28;20493;-72
2022/10/21 09:54:13;;;;;;;15.65;7.35;;;15.60;99.90;;;;;;5105435;28;20059;-73
2022/10/21 09:56:42;;;;;;;12.60;6.82;;;15.70;99.90;;;;;;5108544;28;20045;-73
2022/10/21 09:59:13;;;;;;;17.15;7.38;;;15.70;99.90;;;;;;5112084;28;20055;-73
2022/10/21 10:01:40;;;;;;;19.73;6.63;;;15.80;99.90;;;;;;5111828;28;20027;-72
2022/10/21 10:04:10;;;;;;;14.80;7.35;;;15.90;99.90;;;;;;5111844;28;20031;-73
2022/10/21 10:06:44;;;;;;;14.57;7.68;;;16.00;99.90;;;;;;5111752;28;20073;-73
2022/10/21 10:09:27;;;;;;;14.40;6.65;;;16.10;99.90;;;;;;5111472;28;20016;-72
2022/10/21 10:12:01;;;;;;;17.63;6.13;;;16.20;99.90;;;;;;5098339;28;20051;-73
2022/10/21 10:14:34;;;;;;;17.27;5.82;;;16.30;99.90;;;;;;5108191;28;20032;-73
2022/10/21 10:17:24;;;;;;;15.55;6.20;;;16.50;99.90;;;;;;5105597;28;20020;-73
2022/10/21 10:20:13;;;;;;;12.70;6.15;;;16.60;99.90;;;;;;5105676;28;20035;-72
2022/10/21 10:22:40;;;;;;;12.80;5.60;;;16.70;99.90;;;;;;5100747;28;20461;-72
2022/10/21 10:25:30;;;;;;;13.10;5.78;;;16.80;99.90;;;;;;5105156;28;20495;-72
2022/10/21 10:28:07;;;;;;;14.02;5.18;;;17.00;99.90;;;;;;5106391;28;20334;-72
2022/10/21 10:30:39;;;;;;;13.85;4.93;;;17.20;99.90;;;;;;5108144;28;20035;-73
2022/10/21 10:33:09;;;;;;;13.88;4.60;;;17.30;99.90;;;;;;5095615;28;20365;-72
2022/10/21 10:35:37;;;;;;;7.55;4.25;;;17.40;99.90;;;;;;5095592;28;20070;-72
2022/10/21 10:38:04;;;;;;;8.85;4.00;;;17.50;99.90;;;;;;5099165;28;20549;-73
2022/10/21 10:40:41;;;;;;;10.35;4.40;;;17.60;99.90;;;;;;5090708;28;20485;-72
2022/10/21 10:43:28;;;;;;;15.35;4.28;;;17.60;99.90;;;;;;5091381;28;20067;-73
2022/10/21 10:46:01;;;;;;;11.13;3.95;;;17.70;99.90;;;;;;5106271;28;20384;-73
2022/10/21 10:48:41;;;;;;;11.05;4.40;;;17.70;99.90;;;;;;5110231;28;20141;-72
2022/10/21 10:51:23;;;;;;;14.70;4.30;;;17.80;99.90;;;;;;5090246;28;20395;-72
2022/10/21 10:54:00;;;;;;;14.10;4.30;;;17.90;99.90;;;;;;5103098;28;20069;-72
2022/10/21 10:56:29;;;;;;;12.40;3.95;;;17.90;99.90;;;;;;5107629;28;20348;-72
2022/10/21 10:59:21;;;;;;;11.10;4.15;;;18.10;99.90;;;;;;5111359;28;20058;-72
2022/10/21 11:02:18;;;;;;;9.27;4.20;;;18.10;99.90;;;;;;5107498;28;20019;-73
2022/10/21 11:05:05;;;;;;;8.05;3.65;;;18.00;99.90;;;;;;5107786;28;20035;-73
2022/10/21 11:07:32;;;;;;;9.93;4.32;;;18.00;99.90;;;;;;5107229;28;20124;-72
2022/10/21 11:10:31;;;;;;;10.18;3.85;;;18.00;99.90;;;;;;5087218;28;20168;-74
2022/10/21 11:12:59;;;;;;;11.57;3.75;;;18.00;99.90;;;;;;5087949;28;20119;-72
2022/10/21 11:15:49;;;;;;;9.18;4.13;;;18.00;99.90;;;;;;5105133;28;20027;-72
2022/10/21 11:18:29;;;;;;;12.48;4.13;;;18.00;99.90;;;;;;5104226;28;20023;-73
2022/10/21 11:21:29;;;;;;;9.63;3.50;;;18.00;99.90;;;;;;5101552;28;20478;-73
2022/10/21 11:24:04;;;;;;;11.65;3.83;;;18.00;99.90;;;;;;5105355;28;20494;-73
2022/10/21 11:26:50;;;;;;;10.23;3.95;;;18.00;99.90;;;;;;5096129;28;20407;-72
2022/10/21 11:29:57;;;;;;;9.75;3.97;;;18.10;99.90;;;;;;5099792;28;20417;-72
2022/10/21 11:32:41;;;;;;;9.15;3.85;;;18.20;99.90;;;;;;5091258;28;20545;-74
2022/10/21 11:35:22;;;;;;;7.18;3.85;;;18.30;99.90;;;;;;5102996;28;20046;-73
2022/10/21 11:38:05;;;;;;;14.38;3.92;;;18.40;99.90;;;;;;5100994;28;20058;-73
2022/10/21 11:40:40;;;;;;;11.32;4.05;;;18.50;99.90;;;;;;5107775;28;20491;-73
2022/10/21 11:43:35;;;;;;;9.95;3.80;;;18.50;99.90;;;;;;5100255;28;20028;-73
2022/10/21 11:46:44;;;;;;;10.68;3.72;;;18.60;99.90;;;;;;5096489;28;20383;-73
2022/10/21 11:49:40;;;;;;;15.57;4.43;;;18.70;99.90;;;;;;5022935;28;20049;-73
2022/10/21 11:52:05;;;;;;;13.55;3.55;;;18.80;99.90;;;;;;5025396;28;20493;-73
2022/10/21 11:55:07;;;;;;;8.93;3.40;;;18.90;99.90;;;;;;5030992;28;20041;-74
2022/10/21 11:57:49;;;;;;;10.73;3.38;;;18.90;99.90;;;;;;5027532;28;20026;-73
2022/10/21 12:00:18;;;;;;;8.68;2.78;;;18.90;99.90;;;;;;5031141;28;20029;-73
2022/10/21 12:03:23;;;;;;;7.32;3.17;;;18.80;99.90;;;;;;5029505;28;20445;-73
2022/10/21 12:06:00;;;;;;;10.05;3.03;;;18.80;99.90;;;;;;5020554;28;20045;-74
2022/10/21 12:08:34;;;;;;;13.40;3.42;;;18.90;99.90;;;;;;5024544;28;20029;-73
2022/10/21 12:11:07;;;;;;;12.23;2.83;;;18.90;99.90;;;;;;5029799;28;20064;-73
2022/10/21 12:14:23;;;;;;;10.40;3.53;;;18.90;99.90;;;;;;5030119;28;20696;-73
2022/10/21 12:16:53;;;;;;;9.97;3.27;;;18.90;99.90;;;;;;5005068;28;20041;-74
2022/10/21 12:19:19;;;;;;;9.68;3.28;;;18.90;99.90;;;;;;5029513;28;20320;-73
2022/10/21 12:21:45;;;;;;;13.30;3.42;;;18.90;99.90;;;;;;5029844;28;20032;-72
2022/10/21 12:24:19;;;;;;;9.68;2.90;;;19.00;99.90;;;;;;5030327;28;20030;-73
2022/10/21 12:26:52;;;;;;;7.50;2.67;;;19.00;99.90;;;;;;5099289;28;20495;-72
2022/10/21 12:29:38;;;;;;;6.53;2.40;;;19.00;99.90;;;;;;5102904;28;20395;-74
2022/10/21 12:32:13;;;;;;;;;;;19.00;99.90;;;;;;5113651;28;20047;-73
2022/10/21 12:34:39;;;;;;;8.75;3.00;;;18.90;99.90;;;;;;5112888;28;19964;-73
2022/10/21 12:37:42;;;;;;;8.70;2.83;;;19.00;99.90;;;;;;5092515;28;20103;-73
2022/10/21 12:40:12;;;;;;;8.98;2.58;;;19.10;99.90;;;;;;5102698;28;20019;-73
2022/10/21 12:42:46;;;;;;;9.32;2.70;;;19.20;99.90;;;;;;5098940;28;20041;-73
2022/10/21 12:45:33;;;;;;;12.60;2.85;;;19.30;99.90;;;;;;5089147;28;20043;-73
2022/10/21 12:48:00;;;;;;;8.90;2.58;;;19.50;99.90;;;;;;5096578;28;20553;-73
2022/10/21 12:50:31;;;;;;;6.35;2.42;;;19.60;99.90;;;;;;5095557;28;20083;-73
2022/10/21 12:53:11;;;;;;;9.02;2.30;;;19.80;99.90;;;;;;5108532;28;20446;-74
2022/10/21 12:55:40;;;;;;;9.82;2.40;;;19.90;99.90;;;;;;5111148;28;20027;-73